createdAt,value
2017-08-26T00:02:24.142Z,11.03
2017-08-26T00:04:51.615Z,11.30
2017-08-26T00:07:19.107Z,9.93
2017-08-26T00:09:46.585Z,10.33
2017-08-26T00:12:14.102Z,9.30
2017-08-26T00:14:41.654Z,9.93
2017-08-26T00:17:09.238Z,8.83
2017-08-26T00:19:36.792Z,11.77
2017-08-26T00:22:04.256Z,11.00
2017-08-26T00:24:31.799Z,9.97
2017-08-26T00:26:59.375Z,10.70
2017-08-26T00:29:26.926Z,12.43
2017-08-26T00:31:54.398Z,12.53
2017-08-26T00:34:21.862Z,11.90
2017-08-26T00:36:49.399Z,14.63
2017-08-26T00:39:16.862Z,12.27
2017-08-26T00:41:44.394Z,10.63
2017-08-26T00:44:11.849Z,12.37
2017-08-26T00:46:39.427Z,15.10
2017-08-26T00:49:07.007Z,15.60
2017-08-26T00:51:34.464Z,13.63
2017-08-26T00:54:02.023Z,11.20
2017-08-26T00:56:29.546Z,11.40
2017-08-26T00:58:57.120Z,11.87
2017-08-26T01:01:24.604Z,14.23
2017-08-26T01:03:52.066Z,11.17
2017-08-26T01:06:19.539Z,12.40
2017-08-26T01:08:47.038Z,15.77
2017-08-26T01:11:14.606Z,13.57
2017-08-26T01:13:42.158Z,20.90
2017-08-26T01:16:09.630Z,14.63
2017-08-26T01:18:37.122Z,16.10
2017-08-26T01:21:04.632Z,14.97
2017-08-26T01:23:32.111Z,15.57
2017-08-26T01:25:59.643Z,14.93
2017-08-26T01:28:27.111Z,13.60
2017-08-26T01:30:54.591Z,16.43
2017-08-26T01:33:22.113Z,12.27
2017-08-26T01:35:49.585Z,12.67
2017-08-26T01:38:17.071Z,13.73
2017-08-26T01:40:44.578Z,12.70
2017-08-26T01:43:12.159Z,17.50
2017-08-26T01:45:39.625Z,11.17
2017-08-26T01:48:07.099Z,11.70
2017-08-26T01:50:34.579Z,23.00
2017-08-26T01:53:02.058Z,10.63
2017-08-26T01:55:29.517Z,12.10
2017-08-26T01:57:57.018Z,13.23
2017-08-26T02:00:24.542Z,10.80
2017-08-26T02:02:52.110Z,12.67
2017-08-26T02:05:19.751Z,12.07
2017-08-26T02:07:47.230Z,14.37
2017-08-26T02:10:14.789Z,13.13
2017-08-26T02:12:42.270Z,13.07
2017-08-26T02:15:09.812Z,13.70
2017-08-26T02:17:37.285Z,12.50
2017-08-26T02:20:04.805Z,13.77
2017-08-26T02:22:32.372Z,13.97
2017-08-26T02:24:59.996Z,18.07
2017-08-26T02:27:27.502Z,12.60
2017-08-26T02:29:54.974Z,15.63
2017-08-26T02:32:22.430Z,15.20
2017-08-26T02:34:49.977Z,16.37
2017-08-26T02:37:17.467Z,15.97
2017-08-26T02:39:44.957Z,15.80
2017-08-26T02:42:12.544Z,17.90
2017-08-26T02:44:40.016Z,17.40
2017-08-26T02:47:07.487Z,16.23
2017-08-26T02:49:35.021Z,17.03
2017-08-26T02:52:02.503Z,19.60
2017-08-26T02:54:30.041Z,17.67
2017-08-26T02:56:57.511Z,14.40
2017-08-26T02:59:25.042Z,17.40
2017-08-26T03:01:52.517Z,17.90
2017-08-26T03:04:20.020Z,18.07
2017-08-26T03:06:47.505Z,16.50
2017-08-26T03:09:14.993Z,16.20
2017-08-26T03:11:42.536Z,14.80
2017-08-26T03:14:10.001Z,17.83
2017-08-26T03:16:37.588Z,17.87
2017-08-26T03:19:05.094Z,24.80
2017-08-26T03:21:32.570Z,16.37
2017-08-26T03:24:00.040Z,16.27
2017-08-26T03:26:27.513Z,19.37
2017-08-26T03:28:55.026Z,19.93
2017-08-26T03:31:22.587Z,19.50
2017-08-26T03:33:50.062Z,19.13
2017-08-26T03:36:17.566Z,18.80
2017-08-26T03:38:45.070Z,18.97
2017-08-26T03:41:12.620Z,17.50
2017-08-26T03:43:40.082Z,17.30
2017-08-26T03:46:07.566Z,19.03
2017-08-26T03:48:35.081Z,16.93
2017-08-26T03:51:02.638Z,22.20
2017-08-26T03:53:30.194Z,18.90
2017-08-26T03:55:57.692Z,17.73
2017-08-26T03:58:25.222Z,15.10
2017-08-26T04:00:52.766Z,22.10
2017-08-26T04:03:20.335Z,15.53
2017-08-26T04:05:47.815Z,19.43
2017-08-26T04:08:15.400Z,16.73
2017-08-26T04:10:42.921Z,17.93
2017-08-26T04:13:10.399Z,18.47
2017-08-26T04:15:37.889Z,15.40
2017-08-26T04:18:05.370Z,14.23
2017-08-26T04:20:32.853Z,17.77
2017-08-26T04:23:00.360Z,17.90
2017-08-26T04:25:27.849Z,16.57
2017-08-26T04:27:55.317Z,24.70
2017-08-26T04:30:22.875Z,17.10
2017-08-26T04:32:50.363Z,17.43
2017-08-26T04:35:17.891Z,15.43
2017-08-26T04:37:45.363Z,14.83
2017-08-26T04:40:12.889Z,15.00
2017-08-26T04:42:40.454Z,14.80
2017-08-26T04:45:07.932Z,16.37
2017-08-26T04:47:35.468Z,15.90
2017-08-26T04:50:02.952Z,19.17
2017-08-26T04:52:30.430Z,15.20
2017-08-26T04:54:57.942Z,17.87
2017-08-26T04:57:25.425Z,14.27
2017-08-26T04:59:53.010Z,16.77
2017-08-26T05:02:20.514Z,16.07
2017-08-26T05:04:47.987Z,19.00
2017-08-26T05:07:15.520Z,15.37
2017-08-26T05:09:43.090Z,14.27
2017-08-26T05:12:10.567Z,16.20
2017-08-26T05:14:38.082Z,15.90
2017-08-26T05:17:05.559Z,20.13
2017-08-26T05:19:33.131Z,16.93
2017-08-26T05:22:00.603Z,15.00
2017-08-26T05:24:28.071Z,21.00
2017-08-26T05:26:55.589Z,12.17
2017-08-26T05:29:23.066Z,14.53
2017-08-26T05:31:50.611Z,19.43
2017-08-26T05:34:18.203Z,16.67
2017-08-26T05:36:45.682Z,17.63
2017-08-26T05:39:13.235Z,15.27
2017-08-26T05:41:40.706Z,16.37
2017-08-26T05:44:08.173Z,14.47
2017-08-26T05:46:35.637Z,16.03
2017-08-26T05:49:03.105Z,12.73
2017-08-26T05:51:30.569Z,12.97
2017-08-26T05:53:58.041Z,13.50
2017-08-26T05:56:25.583Z,13.30
2017-08-26T05:58:53.095Z,13.10
2017-08-26T06:01:20.595Z,15.07
2017-08-26T06:03:48.053Z,10.90
2017-08-26T06:06:15.564Z,13.10
2017-08-26T06:08:43.145Z,13.80
2017-08-26T06:11:10.623Z,12.17
2017-08-26T06:13:38.085Z,9.73
2017-08-26T06:16:05.649Z,11.10
2017-08-26T06:18:33.108Z,7.80
2017-08-26T06:21:00.658Z,9.70
2017-08-26T06:23:28.134Z,12.70
2017-08-26T06:25:55.615Z,11.30
2017-08-26T06:28:23.093Z,7.20
2017-08-26T06:30:50.578Z,7.87
2017-08-26T06:33:18.069Z,9.07
2017-08-26T06:35:45.536Z,8.80
2017-08-26T06:38:12.999Z,10.47
2017-08-26T06:40:40.464Z,5.80
2017-08-26T06:43:07.922Z,4.50
2017-08-26T06:45:35.392Z,6.97
2017-08-26T06:48:02.855Z,8.30
2017-08-26T06:50:30.345Z,5.60
2017-08-26T06:52:57.845Z,4.60
2017-08-26T06:55:25.349Z,7.47
2017-08-26T06:57:52.928Z,5.93
2017-08-26T07:00:20.423Z,5.43
2017-08-26T07:02:47.912Z,10.60
2017-08-26T07:05:15.383Z,5.60
2017-08-26T07:07:42.960Z,6.03
2017-08-26T07:10:10.421Z,6.27
2017-08-26T07:12:37.910Z,6.80
2017-08-26T07:15:05.426Z,4.40
2017-08-26T07:17:32.957Z,9.00
2017-08-26T07:20:00.552Z,4.97
2017-08-26T07:22:28.919Z,5.50
2017-08-26T07:24:56.386Z,5.50
2017-08-26T07:27:24.022Z,7.50
2017-08-26T07:29:51.509Z,10.43
2017-08-26T07:32:18.974Z,5.67
2017-08-26T07:34:46.500Z,7.40
2017-08-26T07:37:13.996Z,13.20
2017-08-26T07:39:41.472Z,7.60
2017-08-26T07:42:08.943Z,6.73
2017-08-26T07:44:36.421Z,5.40
2017-08-26T07:47:03.882Z,5.57
2017-08-26T07:49:31.379Z,5.67
2017-08-26T07:51:58.860Z,7.83
2017-08-26T07:54:26.326Z,7.30
2017-08-26T07:56:53.802Z,5.97
2017-08-26T07:59:21.287Z,7.37
2017-08-26T08:01:48.738Z,6.97
2017-08-26T08:04:16.286Z,6.13
2017-08-26T08:06:43.756Z,6.47
2017-08-26T08:09:11.278Z,6.53
2017-08-26T08:11:38.755Z,9.97
2017-08-26T08:14:06.227Z,7.73
2017-08-26T08:16:33.774Z,4.27
2017-08-26T08:19:01.327Z,4.33
2017-08-26T08:21:28.873Z,7.47
2017-08-26T08:23:56.444Z,6.70
2017-08-26T08:26:24.001Z,6.17
2017-08-26T08:28:51.497Z,5.37
2017-08-26T08:31:18.981Z,4.23
2017-08-26T08:33:46.469Z,7.53
2017-08-26T08:36:14.041Z,6.13
2017-08-26T08:38:41.614Z,4.00
2017-08-26T08:41:09.084Z,5.10
2017-08-26T08:43:36.552Z,5.20
2017-08-26T08:46:04.034Z,3.90
2017-08-26T08:48:31.494Z,3.40
2017-08-26T08:50:58.979Z,5.93
2017-08-26T08:53:26.540Z,5.30
2017-08-26T08:55:53.999Z,5.87
2017-08-26T08:58:21.559Z,4.97
2017-08-26T09:00:49.116Z,3.83
2017-08-26T09:03:16.578Z,4.43
2017-08-26T09:05:44.121Z,3.30
2017-08-26T09:08:11.682Z,3.93
2017-08-26T09:10:39.163Z,5.50
2017-08-26T09:13:06.694Z,11.43
2017-08-26T09:15:34.260Z,9.53
2017-08-26T09:18:01.728Z,3.43
2017-08-26T09:20:29.196Z,5.93
2017-08-26T09:22:56.660Z,5.17
2017-08-26T09:25:24.159Z,3.60
2017-08-26T09:27:51.635Z,4.20
2017-08-26T09:30:19.129Z,3.03
2017-08-26T09:32:46.597Z,4.20
2017-08-26T09:35:14.054Z,3.70
2017-08-26T09:37:41.570Z,4.47
2017-08-26T09:40:09.128Z,3.10
2017-08-26T09:42:36.627Z,4.93
2017-08-26T09:45:04.147Z,4.50
2017-08-26T09:47:31.702Z,3.70
2017-08-26T09:49:59.163Z,9.10
2017-08-26T09:52:26.762Z,5.47
2017-08-26T09:54:54.279Z,5.30
2017-08-26T09:57:21.733Z,6.60
2017-08-26T09:59:49.289Z,4.73
2017-08-26T10:02:16.749Z,4.73
2017-08-26T10:04:44.306Z,12.50
2017-08-26T10:07:11.790Z,3.50
2017-08-26T10:09:39.251Z,3.70
2017-08-26T10:12:06.777Z,4.23
2017-08-26T10:14:34.340Z,5.37
2017-08-26T10:17:01.810Z,5.90
2017-08-26T10:19:29.274Z,4.77
2017-08-26T10:21:56.805Z,4.27
2017-08-26T10:24:24.298Z,4.13
2017-08-26T10:26:51.823Z,4.90
2017-08-26T10:29:19.287Z,5.30
2017-08-26T10:31:46.745Z,3.80
2017-08-26T10:34:14.220Z,4.77
2017-08-26T10:36:41.697Z,5.23
2017-08-26T10:39:09.169Z,5.10
2017-08-26T10:41:36.656Z,4.50
2017-08-26T10:44:04.111Z,5.60
2017-08-26T10:46:31.585Z,6.23
2017-08-26T10:48:59.052Z,4.20
2017-08-26T10:51:26.598Z,10.43
2017-08-26T10:53:54.160Z,6.60
2017-08-26T10:56:21.647Z,6.27
2017-08-26T10:58:49.171Z,3.83
2017-08-26T11:01:17.613Z,4.97
2017-08-26T11:03:45.077Z,6.40
2017-08-26T11:06:12.573Z,5.83
2017-08-26T11:08:40.214Z,5.10
2017-08-26T11:11:07.675Z,5.87
2017-08-26T11:13:35.151Z,8.53
2017-08-26T11:16:02.689Z,5.30
2017-08-26T11:18:30.367Z,4.87
2017-08-26T11:20:57.961Z,6.83
2017-08-26T11:23:25.439Z,6.47
2017-08-26T11:25:52.897Z,6.03
2017-08-26T11:28:20.368Z,4.80
2017-08-26T11:30:47.839Z,6.40
2017-08-26T11:33:15.391Z,8.63
2017-08-26T11:35:42.874Z,7.53
2017-08-26T11:38:10.350Z,13.77
2017-08-26T11:40:37.872Z,10.43
2017-08-26T11:43:05.367Z,6.47
2017-08-26T11:45:32.817Z,6.60
2017-08-26T11:48:00.390Z,7.30
2017-08-26T11:50:27.890Z,12.37
2017-08-26T11:52:55.466Z,7.40
2017-08-26T11:55:22.932Z,6.23
2017-08-26T11:57:50.470Z,11.17
2017-08-26T12:00:18.021Z,7.17
2017-08-26T12:02:45.479Z,6.97
2017-08-26T12:05:13.060Z,6.87
2017-08-26T12:07:40.524Z,7.00
2017-08-26T12:10:08.057Z,7.23
2017-08-26T12:12:35.529Z,8.20
2017-08-26T12:15:03.086Z,8.43
2017-08-26T12:17:30.647Z,14.50
2017-08-26T12:19:58.146Z,12.10
2017-08-26T12:22:25.610Z,8.93
2017-08-26T12:24:53.118Z,6.57
2017-08-26T12:27:20.584Z,6.10
2017-08-26T12:29:48.046Z,6.20
2017-08-26T12:32:15.527Z,11.23
2017-08-26T12:34:43.042Z,11.40
2017-08-26T12:37:10.592Z,8.50
2017-08-26T12:39:38.206Z,6.30
2017-08-26T12:42:05.701Z,6.27
2017-08-26T12:44:33.169Z,7.13
2017-08-26T12:47:00.651Z,8.00
2017-08-26T12:49:28.187Z,9.03
2017-08-26T12:51:55.755Z,9.27
2017-08-26T12:54:23.227Z,7.50
2017-08-26T12:56:50.762Z,8.90
2017-08-26T12:59:18.217Z,8.47
2017-08-26T13:01:45.772Z,10.07
2017-08-26T13:04:13.221Z,9.63
2017-08-26T13:06:40.762Z,8.53
2017-08-26T13:09:08.241Z,10.90
2017-08-26T13:11:35.803Z,12.20
2017-08-26T13:14:03.362Z,8.80
2017-08-26T13:16:30.851Z,7.37
2017-08-26T13:18:58.320Z,11.57
2017-08-26T13:21:25.943Z,11.00
2017-08-26T13:23:53.491Z,8.60
2017-08-26T13:26:21.057Z,14.03
2017-08-26T13:28:48.529Z,9.47
2017-08-26T13:31:16.082Z,10.03
2017-08-26T13:33:43.547Z,9.23
2017-08-26T13:36:11.087Z,16.90
2017-08-26T13:38:38.638Z,10.20
2017-08-26T13:41:06.089Z,9.90
2017-08-26T13:43:33.666Z,9.23
2017-08-26T13:46:01.213Z,13.53
2017-08-26T13:48:28.772Z,9.10
2017-08-26T13:50:56.321Z,11.80
2017-08-26T13:53:23.790Z,9.23
2017-08-26T13:55:51.338Z,11.77
2017-08-26T13:58:18.893Z,10.20
2017-08-26T14:00:46.466Z,9.90
2017-08-26T14:03:13.944Z,8.97
2017-08-26T14:05:41.487Z,9.50
2017-08-26T14:08:09.042Z,10.30
2017-08-26T14:10:36.601Z,10.33
2017-08-26T14:13:04.096Z,13.30
2017-08-26T14:15:31.575Z,13.60
2017-08-26T14:17:59.042Z,9.30
2017-08-26T14:20:26.522Z,11.10
2017-08-26T14:22:54.085Z,8.77
2017-08-26T14:25:21.647Z,12.83
2017-08-26T14:27:49.200Z,8.80
2017-08-26T14:30:16.763Z,10.53
2017-08-26T14:32:44.258Z,9.70
2017-08-26T14:35:11.776Z,10.83
2017-08-26T14:37:39.254Z,11.27
2017-08-26T14:40:06.744Z,10.90
2017-08-26T14:42:34.256Z,13.30
2017-08-26T14:45:01.754Z,9.33
2017-08-26T14:47:29.297Z,11.40
2017-08-26T14:49:56.783Z,15.53
2017-08-26T14:52:24.257Z,12.20
2017-08-26T14:54:51.718Z,8.43
2017-08-26T14:57:19.279Z,12.27
2017-08-26T14:59:46.846Z,11.70
2017-08-26T15:02:14.315Z,9.23
2017-08-26T15:04:41.866Z,14.90
2017-08-26T15:07:09.435Z,10.20
2017-08-26T15:09:36.991Z,11.07
2017-08-26T15:12:04.598Z,10.40
2017-08-26T15:14:32.081Z,11.37
2017-08-26T15:16:59.556Z,13.17
2017-08-26T15:19:27.045Z,11.50
2017-08-26T15:21:54.571Z,11.30
2017-08-26T15:24:22.066Z,14.93
2017-08-26T15:26:49.594Z,14.97
2017-08-26T15:29:17.062Z,13.83
2017-08-26T15:31:44.610Z,10.60
2017-08-26T15:34:12.079Z,15.87
2017-08-26T15:36:39.634Z,12.00
2017-08-26T15:39:07.170Z,12.00
2017-08-26T15:41:34.654Z,12.80
2017-08-26T15:44:02.207Z,12.93
2017-08-26T15:46:29.754Z,16.83
2017-08-26T15:48:57.310Z,12.90
2017-08-26T15:51:24.920Z,12.60
2017-08-26T15:53:52.436Z,13.27
2017-08-26T15:56:19.982Z,11.30
2017-08-26T15:58:47.541Z,13.33
2017-08-26T16:01:15.213Z,11.40
2017-08-26T16:03:42.753Z,13.60
2017-08-26T16:06:10.312Z,11.73
2017-08-26T16:08:37.797Z,14.97
2017-08-26T16:11:05.335Z,12.73
2017-08-26T16:13:32.895Z,12.23
2017-08-26T16:16:00.374Z,14.37
2017-08-26T16:18:27.846Z,14.23
2017-08-26T16:20:55.322Z,14.73
2017-08-26T16:23:22.845Z,16.27
2017-08-26T16:25:50.326Z,16.20
2017-08-26T16:28:17.802Z,14.20
2017-08-26T16:30:45.270Z,16.30
2017-08-26T16:33:12.842Z,16.50
2017-08-26T16:35:40.414Z,23.63
2017-08-26T16:38:07.895Z,19.10
2017-08-26T16:40:35.353Z,16.57
2017-08-26T16:43:02.936Z,15.07
2017-08-26T16:45:30.474Z,19.23
2017-08-26T16:47:57.948Z,20.10
2017-08-26T16:50:25.408Z,21.00
2017-08-26T16:52:53.734Z,16.83
2017-08-26T16:55:21.219Z,19.80
2017-08-26T16:57:48.693Z,20.80
2017-08-26T17:00:16.161Z,20.07
2017-08-26T17:02:43.660Z,23.13
2017-08-26T17:05:11.247Z,20.90
2017-08-26T17:07:38.758Z,17.53
2017-08-26T17:10:06.364Z,17.47
2017-08-26T17:12:33.839Z,17.87
2017-08-26T17:15:01.387Z,20.27
2017-08-26T17:17:28.855Z,15.20
2017-08-26T17:19:56.364Z,14.60
2017-08-26T17:22:23.830Z,18.87
2017-08-26T17:24:51.298Z,16.10
2017-08-26T17:27:18.840Z,21.83
2017-08-26T17:29:46.369Z,17.00
2017-08-26T17:32:13.843Z,17.80
2017-08-26T17:34:41.402Z,17.73
2017-08-26T17:37:08.884Z,19.50
2017-08-26T17:39:36.355Z,18.17
2017-08-26T17:42:03.855Z,18.33
2017-08-26T17:44:31.428Z,16.93
2017-08-26T17:46:58.936Z,21.50
2017-08-26T17:49:26.462Z,18.97
2017-08-26T17:51:54.058Z,19.70
2017-08-26T17:54:21.547Z,22.20
2017-08-26T17:56:49.048Z,19.33
2017-08-26T17:59:16.613Z,20.13
2017-08-26T18:01:44.090Z,18.50
2017-08-26T18:04:12.368Z,19.03
2017-08-26T18:06:39.832Z,18.30
2017-08-26T18:09:07.356Z,18.30
2017-08-26T18:11:34.839Z,17.37
2017-08-26T18:14:02.363Z,20.40
2017-08-26T18:16:29.866Z,17.27
2017-08-26T18:18:57.374Z,17.30
2017-08-26T18:21:24.942Z,21.67
2017-08-26T18:23:52.541Z,20.77
2017-08-26T18:26:20.025Z,20.77
2017-08-26T18:28:47.609Z,21.20
2017-08-26T18:31:15.119Z,17.50
2017-08-26T18:33:42.623Z,21.67
2017-08-26T18:36:11.202Z,23.70
2017-08-26T18:38:38.754Z,24.37
2017-08-26T18:41:06.240Z,21.10
2017-08-26T18:43:33.797Z,32.70
2017-08-26T18:46:01.318Z,52.93
2017-08-26T18:48:28.782Z,39.50
2017-08-26T18:50:56.323Z,25.37
2017-08-26T18:53:23.797Z,33.10
2017-08-26T18:55:51.370Z,26.27
2017-08-26T18:58:18.856Z,20.93
2017-08-26T19:00:46.385Z,22.60
2017-08-26T19:03:13.871Z,22.10
2017-08-26T19:05:41.397Z,21.20
2017-08-26T19:08:08.902Z,25.10
2017-08-26T19:10:36.404Z,23.67
2017-08-26T19:13:03.887Z,19.67
2017-08-26T19:15:31.457Z,25.70
2017-08-26T19:17:58.955Z,23.97
2017-08-26T19:20:26.558Z,19.90
2017-08-26T19:22:54.042Z,23.57
2017-08-26T19:25:21.925Z,18.50
2017-08-26T19:27:49.428Z,18.10
2017-08-26T19:30:16.906Z,21.97
2017-08-26T19:32:44.456Z,21.37
2017-08-26T19:35:11.936Z,19.67
2017-08-26T19:37:39.483Z,19.03
2017-08-26T19:40:07.026Z,18.53
2017-08-26T19:42:34.570Z,20.73
2017-08-26T19:45:02.066Z,21.30
2017-08-26T19:47:29.559Z,25.10
2017-08-26T19:49:57.047Z,30.10
2017-08-26T19:52:24.522Z,15.47
2017-08-26T19:54:52.061Z,15.93
2017-08-26T19:57:19.569Z,20.47
2017-08-26T19:59:47.061Z,17.00
2017-08-26T20:02:14.627Z,18.73
2017-08-26T20:04:42.105Z,19.40
2017-08-26T20:07:09.617Z,16.10
2017-08-26T20:09:37.097Z,21.83
2017-08-26T20:12:04.575Z,19.23
2017-08-26T20:14:32.041Z,16.40
2017-08-26T20:16:59.501Z,18.93
2017-08-26T20:19:26.995Z,17.17
2017-08-26T20:21:54.503Z,27.73
2017-08-26T20:24:21.978Z,27.63
2017-08-26T20:26:49.511Z,17.90
2017-08-26T20:29:17.067Z,17.60
2017-08-26T20:31:44.559Z,19.57
2017-08-26T20:34:12.169Z,18.10
2017-08-26T20:36:39.686Z,28.60
2017-08-26T20:39:07.321Z,18.67
2017-08-26T20:41:34.789Z,18.00
2017-08-26T20:44:02.254Z,22.73
2017-08-26T20:46:29.765Z,17.90
2017-08-26T20:48:57.344Z,17.07
2017-08-26T20:51:24.827Z,18.30
2017-08-26T20:53:52.349Z,21.13
2017-08-26T20:56:19.820Z,21.17
2017-08-26T20:58:47.281Z,18.77
2017-08-26T21:01:14.789Z,19.63
2017-08-26T21:03:42.264Z,20.57
2017-08-26T21:06:09.743Z,16.67
2017-08-26T21:08:37.338Z,21.80
2017-08-26T21:11:04.867Z,16.97
2017-08-26T21:13:32.421Z,18.60
2017-08-26T21:16:00.071Z,18.67
2017-08-26T21:18:27.566Z,20.60
2017-08-26T21:20:55.063Z,20.53
2017-08-26T21:23:22.541Z,18.90
2017-08-26T21:25:50.045Z,18.70
2017-08-26T21:28:17.506Z,21.47
2017-08-26T21:30:45.120Z,23.30
2017-08-26T21:33:12.596Z,16.27
2017-08-26T21:35:40.056Z,22.50
2017-08-26T21:38:07.542Z,17.50
2017-08-26T21:40:35.013Z,18.47
2017-08-26T21:43:02.494Z,18.53
2017-08-26T21:45:30.393Z,20.30
2017-08-26T21:47:57.878Z,18.07
2017-08-26T21:50:25.349Z,19.33
2017-08-26T21:52:52.815Z,21.37
2017-08-26T21:55:20.392Z,23.13
2017-08-26T21:57:47.951Z,20.47
2017-08-26T22:00:15.454Z,20.43
2017-08-26T22:02:42.973Z,18.67
2017-08-26T22:05:10.457Z,19.10
2017-08-26T22:07:37.982Z,18.67
2017-08-26T22:10:05.460Z,20.87
2017-08-26T22:12:33.006Z,22.00
2017-08-26T22:15:00.497Z,15.63
2017-08-26T22:17:28.000Z,19.67
2017-08-26T22:19:55.574Z,17.10
2017-08-26T22:22:23.057Z,20.70
2017-08-26T22:24:50.529Z,17.00
2017-08-26T22:27:17.992Z,20.00
2017-08-26T22:29:45.499Z,18.50
2017-08-26T22:32:13.064Z,22.57
2017-08-26T22:34:40.526Z,18.20
2017-08-26T22:37:08.079Z,16.77
2017-08-26T22:39:35.635Z,20.63
2017-08-26T22:42:03.194Z,19.03
2017-08-26T22:44:30.698Z,19.37
2017-08-26T22:46:58.180Z,24.63
2017-08-26T22:49:25.759Z,18.50
2017-08-26T22:51:53.267Z,18.20
2017-08-26T22:54:20.766Z,18.70
2017-08-26T22:56:48.329Z,16.60
2017-08-26T22:59:16.611Z,17.80
2017-08-26T23:01:44.215Z,21.30
2017-08-26T23:04:11.725Z,17.67
2017-08-26T23:06:39.210Z,18.93
2017-08-26T23:09:06.681Z,19.40
2017-08-26T23:11:34.174Z,19.53
2017-08-26T23:14:01.652Z,18.90
2017-08-26T23:16:29.210Z,17.43
2017-08-26T23:18:56.793Z,19.03
2017-08-26T23:21:24.276Z,20.93
2017-08-26T23:23:51.777Z,21.10
2017-08-26T23:26:19.355Z,22.20
2017-08-26T23:28:46.956Z,18.97
2017-08-26T23:31:14.442Z,20.30
2017-08-26T23:33:41.955Z,20.27
2017-08-26T23:36:09.474Z,19.87
2017-08-26T23:38:36.954Z,22.80
2017-08-26T23:41:04.446Z,24.03
2017-08-26T23:43:31.927Z,19.33
2017-08-26T23:45:59.506Z,21.67
2017-08-26T23:48:27.098Z,22.20
2017-08-26T23:50:54.642Z,25.77
2017-08-26T23:53:22.177Z,19.87
2017-08-26T23:55:49.758Z,23.30
2017-08-26T23:58:17.297Z,25.03
